EIN42N LIPZ-EIDW
Flight info
| Callsign | EIN42N |
|---|---|
| Flight time | 2h 32m |
| Altitude | 36000 |
| Route | ROKIB DCT ALESE DCT UNIMI L12 MOGTI P66 KPT L608 KUNOD DCT KRH DCT LIRSU DCT REMBA M624 BUB L608 DENUT L610 KOPUL Q60 OKSAW DCT TEWXI DCT LANON L18 LIPGO |
| Aircraft | A320/M-SDE3FGHIRWY/LB1 |
Departure
| Time | 2026-02-21 22:40 |
|---|---|
| Airport | Venice Marco Polo Airport (LIPZ) |
Arrival
| Time | 2026-02-22 01:13 |
|---|---|
| Airport | Dublin Airport (EIDW) |
| Time | Latitude | Longitude | Altitude | Speed | Heading |
|---|---|---|---|---|---|
| 2026-02-21 22:09 | 45.50548 | 12.34201 | 16 ft | 0 kts | 266° |
| 2026-02-21 22:31 | 45.50548 | 12.34203 | 16 ft | 1 kts | 266° |
| 2026-02-21 22:31 | 45.50549 | 12.34226 | 19 ft | 3 kts | 266° |
| 2026-02-21 22:31 | 45.50550 | 12.34255 | 17 ft | 3 kts | 266° |
| 2026-02-21 22:32 | 45.50551 | 12.34283 | 18 ft | 3 kts | 266° |
| 2026-02-21 22:32 | 45.50553 | 12.34312 | 16 ft | 3 kts | 266° |
| 2026-02-21 22:32 | 45.50555 | 12.34340 | 16 ft | 3 kts | 257° |
| 2026-02-21 22:32 | 45.50560 | 12.34367 | 17 ft | 3 kts | 244° |
| 2026-02-21 22:33 | 45.50570 | 12.34391 | 17 ft | 2 kts | 225° |
| 2026-02-21 22:33 | 45.50574 | 12.34396 | 16 ft | 0 kts | 223° |
| 2026-02-21 22:35 | 45.50540 | 12.34354 | 18 ft | 9 kts | 214° |
| 2026-02-21 22:35 | 45.50483 | 12.34342 | 16 ft | 8 kts | 179° |
| 2026-02-21 22:36 | 45.50434 | 12.34345 | 16 ft | 6 kts | 178° |
| 2026-02-21 22:36 | 45.50391 | 12.34347 | 16 ft | 9 kts | 178° |
| 2026-02-21 22:36 | 45.50300 | 12.34344 | 16 ft | 14 kts | 197° |
| 2026-02-21 22:36 | 45.50215 | 12.34254 | 17 ft | 16 kts | 223° |
| 2026-02-21 22:37 | 45.50125 | 12.34138 | 16 ft | 19 kts | 221° |
| 2026-02-21 22:37 | 45.50022 | 12.34008 | 15 ft | 21 kts | 221° |
| 2026-02-21 22:37 | 45.49907 | 12.33866 | 16 ft | 23 kts | 220° |
| 2026-02-21 22:37 | 45.49787 | 12.33709 | 16 ft | 19 kts | 223° |
| 2026-02-21 22:38 | 45.49680 | 12.33609 | 18 ft | 20 kts | 213° |
| 2026-02-21 22:38 | 45.49623 | 12.33538 | 16 ft | 7 kts | 222° |
| 2026-02-21 22:38 | 45.49587 | 12.33515 | 18 ft | 5 kts | 186° |
| 2026-02-21 22:38 | 45.49561 | 12.33530 | 18 ft | 6 kts | 142° |
| 2026-02-21 22:39 | 45.49508 | 12.33608 | 17 ft | 13 kts | 131° |
| 2026-02-21 22:39 | 45.49441 | 12.33716 | 17 ft | 16 kts | 131° |
| 2026-02-21 22:39 | 45.49446 | 12.33825 | 15 ft | 9 kts | 36° |
| 2026-02-21 22:39 | 45.49491 | 12.33880 | 15 ft | 9 kts | 42° |
| 2026-02-21 22:40 | 45.49646 | 12.34079 | 15 ft | 66 kts | 41° |
| 2026-02-21 22:40 | 45.50161 | 12.34736 | 16 ft | 130 kts | 42° |
| 2026-02-21 22:40 | 45.50944 | 12.35738 | 257 ft | 157 kts | 45° |
| 2026-02-21 22:40 | 45.51736 | 12.36826 | 926 ft | 159 kts | 45° |
| 2026-02-21 22:41 | 45.52562 | 12.37971 | 1436 ft | 177 kts | 44° |
| 2026-02-21 22:41 | 45.53383 | 12.39403 | 1840 ft | 198 kts | 65° |
| 2026-02-21 22:41 | 45.53637 | 12.41370 | 2439 ft | 207 kts | 94° |
| 2026-02-21 22:41 | 45.53445 | 12.43423 | 3173 ft | 210 kts | 98° |
| 2026-02-21 22:42 | 45.53224 | 12.45492 | 3912 ft | 212 kts | 98° |
| 2026-02-21 22:42 | 45.52715 | 12.49673 | 5286 ft | 221 kts | 108° |
| 2026-02-21 22:42 | 45.51882 | 12.51521 | 5941 ft | 226 kts | 137° |
| 2026-02-21 22:43 | 45.50518 | 12.52618 | 6613 ft | 229 kts | 166° |
| 2026-02-21 22:43 | 45.48937 | 12.52670 | 7225 ft | 230 kts | 197° |
| 2026-02-21 22:43 | 45.47517 | 12.51667 | 7816 ft | 229 kts | 225° |
| 2026-02-21 22:43 | 45.46605 | 12.49864 | 8426 ft | 224 kts | 255° |
| 2026-02-21 22:44 | 45.46405 | 12.47672 | 8845 ft | 229 kts | 283° |
| 2026-02-21 22:44 | 45.46836 | 12.45450 | 9292 ft | 243 kts | 293° |
| 2026-02-21 22:44 | 45.47376 | 12.43065 | 9820 ft | 262 kts | 293° |
| 2026-02-21 22:44 | 45.47940 | 12.40550 | 10527 ft | 273 kts | 293° |
| 2026-02-21 22:45 | 45.48542 | 12.37861 | 10856 ft | 297 kts | 293° |
| 2026-02-21 22:45 | 45.49189 | 12.34945 | 11139 ft | 320 kts | 292° |
| 2026-02-21 22:45 | 45.49869 | 12.31847 | 11702 ft | 332 kts | 292° |
| 2026-02-21 22:45 | 45.50552 | 12.28681 | 12491 ft | 337 kts | 292° |
| 2026-02-21 22:46 | 45.51237 | 12.25473 | 13325 ft | 340 kts | 292° |
| 2026-02-21 22:46 | 45.51918 | 12.22283 | 14135 ft | 343 kts | 293° |
| 2026-02-21 22:46 | 45.52617 | 12.19019 | 14870 ft | 345 kts | 293° |
| 2026-02-21 22:46 | 45.53327 | 12.15740 | 15613 ft | 347 kts | 294° |
| 2026-02-21 22:47 | 45.54046 | 12.12443 | 16330 ft | 350 kts | 294° |
| 2026-02-21 22:47 | 45.54770 | 12.09121 | 17067 ft | 352 kts | 294° |
| 2026-02-21 22:47 | 45.55498 | 12.05775 | 17805 ft | 354 kts | 295° |
| 2026-02-21 22:47 | 45.56231 | 12.02404 | 18546 ft | 357 kts | 295° |
| 2026-02-21 22:48 | 45.56997 | 11.99083 | 19158 ft | 356 kts | 300° |
| 2026-02-21 22:48 | 45.58153 | 11.96007 | 19755 ft | 350 kts | 311° |
| 2026-02-21 22:48 | 45.59719 | 11.93390 | 20354 ft | 346 kts | 322° |
| 2026-02-21 22:48 | 45.61619 | 11.91315 | 20943 ft | 343 kts | 332° |
| 2026-02-21 22:49 | 45.63749 | 11.89778 | 21532 ft | 344 kts | 337° |
| 2026-02-21 22:49 | 45.65920 | 11.88305 | 22103 ft | 347 kts | 337° |
| 2026-02-21 22:49 | 45.68103 | 11.86818 | 22665 ft | 349 kts | 337° |
| 2026-02-21 22:49 | 45.70303 | 11.85311 | 23216 ft | 352 kts | 337° |
| 2026-02-21 22:50 | 45.72518 | 11.83789 | 23733 ft | 354 kts | 337° |
| 2026-02-21 22:50 | 45.74718 | 11.82273 | 24107 ft | 358 kts | 336° |
| 2026-02-21 22:50 | 45.76971 | 11.80715 | 24541 ft | 361 kts | 336° |
| 2026-02-21 22:50 | 45.79231 | 11.79146 | 24984 ft | 362 kts | 336° |
| 2026-02-21 22:51 | 45.83771 | 11.75892 | 25808 ft | 366 kts | 338° |
| 2026-02-21 22:51 | 45.86095 | 11.74391 | 26196 ft | 368 kts | 338° |
| 2026-02-21 22:51 | 45.88422 | 11.72834 | 26587 ft | 370 kts | 337° |
| 2026-02-21 22:52 | 45.90722 | 11.71256 | 26997 ft | 372 kts | 336° |
| 2026-02-21 22:52 | 45.93054 | 11.69634 | 27349 ft | 374 kts | 336° |
| 2026-02-21 22:52 | 45.95371 | 11.67901 | 27718 ft | 377 kts | 334° |
| 2026-02-21 22:52 | 45.97651 | 11.66023 | 28156 ft | 379 kts | 333° |
| 2026-02-21 22:53 | 45.99910 | 11.64066 | 28602 ft | 379 kts | 332° |
| 2026-02-21 22:53 | 46.02163 | 11.62080 | 29010 ft | 381 kts | 332° |
| 2026-02-21 22:53 | 46.04428 | 11.60090 | 29367 ft | 382 kts | 332° |
| 2026-02-21 22:53 | 46.06706 | 11.58113 | 29732 ft | 382 kts | 333° |
| 2026-02-21 22:54 | 46.08985 | 11.56160 | 30180 ft | 380 kts | 333° |
| 2026-02-21 22:54 | 46.11232 | 11.54249 | 30450 ft | 380 kts | 333° |
| 2026-02-21 22:54 | 46.13508 | 11.52319 | 30767 ft | 379 kts | 333° |
| 2026-02-21 22:54 | 46.15780 | 11.50392 | 31192 ft | 377 kts | 333° |
| 2026-02-21 22:55 | 46.18035 | 11.48479 | 31536 ft | 376 kts | 333° |
| 2026-02-21 22:55 | 46.20287 | 11.46563 | 31895 ft | 375 kts | 333° |
| 2026-02-21 22:55 | 46.22532 | 11.44648 | 32197 ft | 375 kts | 333° |
| 2026-02-21 22:55 | 46.24773 | 11.42732 | 32606 ft | 373 kts | 333° |
| 2026-02-21 22:56 | 46.27003 | 11.40840 | 32991 ft | 371 kts | 335° |
| 2026-02-21 22:56 | 46.29352 | 11.39324 | 33317 ft | 368 kts | 341° |
| 2026-02-21 22:56 | 46.31696 | 11.37991 | 33647 ft | 367 kts | 341° |
| 2026-02-21 22:56 | 46.34066 | 11.36642 | 34050 ft | 366 kts | 341° |
| 2026-02-21 22:57 | 46.36432 | 11.35292 | 34381 ft | 364 kts | 341° |
| 2026-02-21 22:57 | 46.38787 | 11.33946 | 34660 ft | 364 kts | 340° |
| 2026-02-21 22:57 | 46.41147 | 11.32594 | 35049 ft | 365 kts | 340° |
| 2026-02-21 22:57 | 46.43512 | 11.31229 | 35328 ft | 364 kts | 340° |
| 2026-02-21 22:58 | 46.45867 | 11.29865 | 35599 ft | 364 kts | 340° |
| 2026-02-21 22:58 | 46.48222 | 11.28504 | 35834 ft | 366 kts | 340° |
| 2026-02-21 22:58 | 46.50593 | 11.27138 | 36077 ft | 367 kts | 340° |
| 2026-02-21 22:58 | 46.52968 | 11.25772 | 36254 ft | 369 kts | 340° |
| 2026-02-21 22:59 | 46.56958 | 11.23476 | 36271 ft | 372 kts | 340° |
| 2026-02-21 22:59 | 46.62547 | 11.20241 | 36280 ft | 372 kts | 340° |
| 2026-02-21 23:00 | 46.67322 | 11.17470 | 36276 ft | 367 kts | 340° |
| 2026-02-21 23:00 | 46.71250 | 11.15183 | 36285 ft | 366 kts | 340° |
| 2026-02-21 23:01 | 46.75984 | 11.12429 | 36284 ft | 366 kts | 340° |
| 2026-02-21 23:01 | 46.80716 | 11.09668 | 36286 ft | 366 kts | 340° |
| 2026-02-21 23:02 | 46.86201 | 11.06462 | 36313 ft | 365 kts | 340° |
| 2026-02-21 23:02 | 46.90073 | 11.03995 | 36322 ft | 365 kts | 338° |
| 2026-02-21 23:03 | 46.94655 | 11.00854 | 36331 ft | 363 kts | 337° |
| 2026-02-21 23:03 | 46.99977 | 10.97280 | 36327 ft | 361 kts | 338° |
| 2026-02-21 23:04 | 47.03822 | 10.94775 | 36332 ft | 361 kts | 338° |
| 2026-02-21 23:04 | 47.08383 | 10.91817 | 36339 ft | 360 kts | 338° |
| 2026-02-21 23:05 | 47.12953 | 10.88821 | 36346 ft | 359 kts | 338° |
| 2026-02-21 23:05 | 47.17508 | 10.85827 | 36337 ft | 358 kts | 338° |
| 2026-02-21 23:06 | 47.22057 | 10.82839 | 36342 ft | 358 kts | 338° |
| 2026-02-21 23:06 | 47.26566 | 10.79865 | 36287 ft | 358 kts | 338° |
| 2026-02-21 23:07 | 47.31105 | 10.76858 | 36300 ft | 357 kts | 338° |
| 2026-02-21 23:07 | 47.35648 | 10.73843 | 36306 ft | 359 kts | 338° |
| 2026-02-21 23:08 | 47.40098 | 10.70491 | 36307 ft | 362 kts | 329° |
| 2026-02-21 23:08 | 47.44237 | 10.66284 | 36303 ft | 362 kts | 329° |
| 2026-02-21 23:09 | 47.48368 | 10.62063 | 36299 ft | 362 kts | 329° |
| 2026-02-21 23:09 | 47.52509 | 10.57815 | 36283 ft | 363 kts | 329° |
| 2026-02-21 23:10 | 47.56662 | 10.53561 | 36292 ft | 364 kts | 329° |
| 2026-02-21 23:10 | 47.60820 | 10.49270 | 36295 ft | 366 kts | 329° |
| 2026-02-21 23:11 | 47.64986 | 10.44958 | 36314 ft | 368 kts | 328° |
| 2026-02-21 23:11 | 47.69181 | 10.40605 | 36326 ft | 368 kts | 329° |
| 2026-02-21 23:12 | 47.73381 | 10.36250 | 36331 ft | 368 kts | 328° |
| 2026-02-21 23:12 | 47.77490 | 10.31674 | 36317 ft | 370 kts | 325° |
| 2026-02-21 23:13 | 47.81426 | 10.26806 | 36314 ft | 371 kts | 324° |
| 2026-02-21 23:13 | 47.85379 | 10.21860 | 36318 ft | 371 kts | 324° |
| 2026-02-21 23:14 | 47.89357 | 10.16961 | 36285 ft | 372 kts | 324° |
| 2026-02-21 23:14 | 47.93367 | 10.12067 | 36293 ft | 373 kts | 324° |
| 2026-02-21 23:15 | 47.97350 | 10.07191 | 36285 ft | 373 kts | 324° |
| 2026-02-21 23:15 | 48.01358 | 10.02257 | 36314 ft | 374 kts | 324° |
| 2026-02-21 23:16 | 48.05373 | 9.97305 | 36311 ft | 374 kts | 324° |
| 2026-02-21 23:16 | 48.09387 | 9.92352 | 36305 ft | 375 kts | 324° |
| 2026-02-21 23:17 | 48.13386 | 9.87408 | 36302 ft | 377 kts | 324° |
| 2026-02-21 23:17 | 48.17437 | 9.82389 | 36286 ft | 380 kts | 324° |
| 2026-02-21 23:18 | 48.21518 | 9.77321 | 36299 ft | 381 kts | 324° |
| 2026-02-21 23:18 | 48.25569 | 9.72270 | 36313 ft | 381 kts | 323° |
| 2026-02-21 23:19 | 48.29647 | 9.67170 | 36312 ft | 381 kts | 323° |
| 2026-02-21 23:19 | 48.33716 | 9.62052 | 36323 ft | 382 kts | 321° |
| 2026-02-21 23:20 | 48.37456 | 9.56316 | 36321 ft | 384 kts | 319° |
| 2026-02-21 23:20 | 48.41149 | 9.50578 | 36284 ft | 384 kts | 318° |
| 2026-02-21 23:21 | 48.44864 | 9.44791 | 36284 ft | 384 kts | 318° |
| 2026-02-21 23:21 | 48.48575 | 9.38994 | 36292 ft | 384 kts | 318° |
| 2026-02-21 23:22 | 48.52290 | 9.33188 | 36300 ft | 384 kts | 318° |
| 2026-02-21 23:22 | 48.55974 | 9.27420 | 36300 ft | 384 kts | 318° |
| 2026-02-21 23:23 | 48.59677 | 9.21591 | 36311 ft | 385 kts | 318° |
| 2026-02-21 23:23 | 48.63379 | 9.15750 | 36309 ft | 385 kts | 318° |
| 2026-02-21 23:24 | 48.67079 | 9.09905 | 36285 ft | 384 kts | 317° |
| 2026-02-21 23:24 | 48.70746 | 9.04100 | 36288 ft | 384 kts | 317° |
| 2026-02-21 23:25 | 48.74434 | 8.98244 | 36309 ft | 384 kts | 317° |
| 2026-02-21 23:25 | 48.78117 | 8.92386 | 36307 ft | 384 kts | 317° |
| 2026-02-21 23:26 | 48.81795 | 8.86521 | 36305 ft | 383 kts | 317° |
| 2026-02-21 23:26 | 48.85443 | 8.80696 | 36290 ft | 383 kts | 317° |
| 2026-02-21 23:27 | 48.89109 | 8.74824 | 36269 ft | 383 kts | 317° |
| 2026-02-21 23:27 | 48.92771 | 8.68938 | 36274 ft | 383 kts | 317° |
| 2026-02-21 23:28 | 48.96425 | 8.63049 | 36274 ft | 383 kts | 317° |
| 2026-02-21 23:28 | 49.00046 | 8.57195 | 36298 ft | 382 kts | 316° |
| 2026-02-21 23:29 | 49.03601 | 8.51162 | 36291 ft | 383 kts | 315° |
| 2026-02-21 23:29 | 49.07107 | 8.45052 | 36292 ft | 383 kts | 315° |
| 2026-02-21 23:30 | 49.10616 | 8.38947 | 36293 ft | 383 kts | 315° |
| 2026-02-21 23:30 | 49.14115 | 8.32899 | 36286 ft | 382 kts | 315° |
| 2026-02-21 23:31 | 49.17635 | 8.26806 | 36285 ft | 383 kts | 315° |
| 2026-02-21 23:31 | 49.21155 | 8.20698 | 36286 ft | 383 kts | 315° |
| 2026-02-21 23:32 | 49.24667 | 8.14578 | 36304 ft | 383 kts | 315° |
| 2026-02-21 23:32 | 49.28179 | 8.08452 | 36301 ft | 382 kts | 315° |
| 2026-02-21 23:33 | 49.31657 | 8.02375 | 36272 ft | 382 kts | 315° |
| 2026-02-21 23:33 | 49.35147 | 7.96255 | 36276 ft | 381 kts | 314° |
| 2026-02-21 23:34 | 49.38634 | 7.90131 | 36281 ft | 381 kts | 314° |
| 2026-02-21 23:34 | 49.42113 | 7.84001 | 36280 ft | 381 kts | 314° |
| 2026-02-21 23:35 | 49.45563 | 7.77905 | 36282 ft | 381 kts | 314° |
| 2026-02-21 23:35 | 49.49035 | 7.71750 | 36289 ft | 380 kts | 314° |
| 2026-02-21 23:36 | 49.52500 | 7.65605 | 36286 ft | 380 kts | 314° |
| 2026-02-21 23:36 | 49.55958 | 7.59455 | 36257 ft | 380 kts | 313° |
| 2026-02-21 23:37 | 49.59416 | 7.53297 | 36259 ft | 380 kts | 313° |
| 2026-02-21 23:37 | 49.62850 | 7.47164 | 36260 ft | 380 kts | 313° |
| 2026-02-21 23:38 | 49.66303 | 7.40981 | 36256 ft | 380 kts | 313° |
| 2026-02-21 23:38 | 49.69753 | 7.34786 | 36259 ft | 381 kts | 313° |
| 2026-02-21 23:39 | 49.73176 | 7.28619 | 36259 ft | 381 kts | 313° |
| 2026-02-21 23:39 | 49.76623 | 7.22407 | 36243 ft | 381 kts | 313° |
| 2026-02-21 23:40 | 49.80067 | 7.16183 | 36250 ft | 381 kts | 313° |
| 2026-02-21 23:40 | 49.83509 | 7.09954 | 36254 ft | 380 kts | 313° |
| 2026-02-21 23:41 | 49.86918 | 7.03754 | 36250 ft | 381 kts | 312° |
| 2026-02-21 23:41 | 49.90353 | 6.97501 | 36250 ft | 381 kts | 312° |
| 2026-02-21 23:42 | 49.97203 | 6.84969 | 36261 ft | 381 kts | 312° |
| 2026-02-21 23:43 | 50.00628 | 6.78696 | 36275 ft | 380 kts | 311° |
| 2026-02-21 23:43 | 50.04023 | 6.72452 | 36274 ft | 380 kts | 311° |
| 2026-02-21 23:44 | 50.07427 | 6.66170 | 36272 ft | 379 kts | 311° |
| 2026-02-21 23:44 | 50.10828 | 6.59884 | 36268 ft | 379 kts | 311° |
| 2026-02-21 23:45 | 50.14225 | 6.53601 | 36253 ft | 379 kts | 311° |
| 2026-02-21 23:45 | 50.17590 | 6.47356 | 36247 ft | 379 kts | 310° |
| 2026-02-21 23:46 | 50.20284 | 6.40272 | 36210 ft | 382 kts | 299° |
| 2026-02-21 23:46 | 50.22642 | 6.32830 | 36213 ft | 383 kts | 299° |
| 2026-02-21 23:47 | 50.25007 | 6.25368 | 36218 ft | 383 kts | 299° |
| 2026-02-21 23:47 | 50.27355 | 6.17947 | 36229 ft | 384 kts | 299° |
| 2026-02-21 23:48 | 50.29711 | 6.10459 | 36230 ft | 384 kts | 299° |
| 2026-02-21 23:48 | 50.32062 | 6.02962 | 36232 ft | 384 kts | 299° |
| 2026-02-21 23:49 | 50.34409 | 5.95445 | 36217 ft | 384 kts | 298° |
| 2026-02-21 23:49 | 50.36738 | 5.87982 | 36224 ft | 384 kts | 298° |
| 2026-02-21 23:50 | 50.39081 | 5.80462 | 36229 ft | 384 kts | 298° |
| 2026-02-21 23:50 | 50.41413 | 5.72932 | 36233 ft | 384 kts | 298° |
| 2026-02-21 23:51 | 50.43736 | 5.65401 | 36235 ft | 384 kts | 298° |
| 2026-02-21 23:51 | 50.46041 | 5.57909 | 36239 ft | 384 kts | 298° |
| 2026-02-21 23:52 | 50.48356 | 5.50370 | 36220 ft | 383 kts | 297° |
| 2026-02-21 23:52 | 50.50666 | 5.42830 | 36226 ft | 383 kts | 297° |
| 2026-02-21 23:53 | 50.52972 | 5.35288 | 36243 ft | 383 kts | 297° |
| 2026-02-21 23:53 | 50.55258 | 5.27789 | 36234 ft | 383 kts | 297° |
| 2026-02-21 23:54 | 50.57549 | 5.20240 | 36232 ft | 383 kts | 297° |
| 2026-02-21 23:54 | 50.59830 | 5.12678 | 36219 ft | 382 kts | 297° |
| 2026-02-21 23:55 | 50.62114 | 5.05112 | 36198 ft | 383 kts | 296° |
| 2026-02-21 23:55 | 50.64378 | 4.97581 | 36201 ft | 383 kts | 296° |
| 2026-02-21 23:56 | 50.67034 | 4.90337 | 36204 ft | 383 kts | 309° |
| 2026-02-21 23:56 | 50.70776 | 4.84335 | 36208 ft | 384 kts | 313° |
| 2026-02-21 23:57 | 50.74577 | 4.78406 | 36208 ft | 384 kts | 313° |
| 2026-02-21 23:57 | 50.78349 | 4.72499 | 36241 ft | 384 kts | 313° |
| 2026-02-21 23:58 | 50.82148 | 4.66549 | 36212 ft | 384 kts | 313° |
| 2026-02-21 23:58 | 50.85942 | 4.60591 | 36212 ft | 385 kts | 312° |
| 2026-02-21 23:59 | 50.89701 | 4.54565 | 36211 ft | 384 kts | 308° |
| 2026-02-21 23:59 | 50.92638 | 4.47548 | 36211 ft | 382 kts | 300° |
| 2026-02-22 00:00 | 50.95380 | 4.40404 | 36214 ft | 382 kts | 301° |
| 2026-02-22 00:00 | 50.98149 | 4.33196 | 36218 ft | 382 kts | 300° |
| 2026-02-22 00:01 | 51.00911 | 4.25975 | 36219 ft | 383 kts | 300° |
| 2026-02-22 00:01 | 51.03668 | 4.18744 | 36205 ft | 383 kts | 300° |
| 2026-02-22 00:02 | 51.06397 | 4.11553 | 36203 ft | 383 kts | 300° |
| 2026-02-22 00:02 | 51.09144 | 4.04297 | 36202 ft | 383 kts | 300° |
| 2026-02-22 00:03 | 51.11891 | 3.97037 | 36204 ft | 383 kts | 300° |
| 2026-02-22 00:03 | 51.14626 | 3.89771 | 36206 ft | 383 kts | 300° |
| 2026-02-22 00:04 | 51.17343 | 3.82540 | 36201 ft | 383 kts | 300° |
| 2026-02-22 00:04 | 51.20077 | 3.75252 | 36190 ft | 383 kts | 300° |
| 2026-02-22 00:05 | 51.22776 | 3.67932 | 36195 ft | 382 kts | 296° |
| 2026-02-22 00:05 | 51.24399 | 3.59885 | 36199 ft | 383 kts | 283° |
| 2026-02-22 00:06 | 51.25500 | 3.51570 | 36196 ft | 383 kts | 284° |
| 2026-02-22 00:06 | 51.26594 | 3.43303 | 36193 ft | 383 kts | 283° |
| 2026-02-22 00:07 | 51.27685 | 3.34976 | 36190 ft | 383 kts | 283° |
| 2026-02-22 00:07 | 51.28758 | 3.26635 | 36204 ft | 383 kts | 283° |
| 2026-02-22 00:08 | 51.29820 | 3.18291 | 36216 ft | 383 kts | 283° |
| 2026-02-22 00:08 | 51.30873 | 3.10003 | 36217 ft | 383 kts | 282° |
| 2026-02-22 00:09 | 51.31923 | 3.01673 | 36209 ft | 382 kts | 282° |
| 2026-02-22 00:09 | 51.32970 | 2.93342 | 36192 ft | 382 kts | 282° |
| 2026-02-22 00:10 | 51.34010 | 2.85013 | 36181 ft | 382 kts | 282° |
| 2026-02-22 00:10 | 51.35040 | 2.76682 | 36185 ft | 382 kts | 282° |
| 2026-02-22 00:11 | 51.36064 | 2.68400 | 36181 ft | 382 kts | 282° |
| 2026-02-22 00:11 | 51.37091 | 2.60058 | 36184 ft | 382 kts | 282° |
| 2026-02-22 00:12 | 51.38116 | 2.51717 | 36186 ft | 382 kts | 282° |
| 2026-02-22 00:12 | 51.39130 | 2.43377 | 36177 ft | 382 kts | 282° |
| 2026-02-22 00:13 | 51.40127 | 2.35087 | 36179 ft | 381 kts | 281° |
| 2026-02-22 00:13 | 51.41123 | 2.26756 | 36185 ft | 381 kts | 281° |
| 2026-02-22 00:14 | 51.42135 | 2.18438 | 36184 ft | 380 kts | 282° |
| 2026-02-22 00:14 | 51.43150 | 2.10183 | 36176 ft | 380 kts | 282° |
| 2026-02-22 00:15 | 51.44159 | 2.01891 | 36175 ft | 379 kts | 282° |
| 2026-02-22 00:15 | 51.45155 | 1.93584 | 36180 ft | 379 kts | 281° |
| 2026-02-22 00:16 | 51.46126 | 1.85269 | 36182 ft | 379 kts | 281° |
| 2026-02-22 00:16 | 51.47082 | 1.76969 | 36175 ft | 378 kts | 281° |
| 2026-02-22 00:17 | 51.48028 | 1.68727 | 36179 ft | 378 kts | 281° |
| 2026-02-22 00:17 | 51.48973 | 1.60433 | 36179 ft | 378 kts | 281° |
| 2026-02-22 00:18 | 51.49924 | 1.52145 | 36172 ft | 378 kts | 281° |
| 2026-02-22 00:18 | 51.50867 | 1.43856 | 36155 ft | 377 kts | 281° |
| 2026-02-22 00:19 | 51.51795 | 1.35613 | 36163 ft | 378 kts | 280° |
| 2026-02-22 00:19 | 51.52719 | 1.27307 | 36156 ft | 378 kts | 280° |
| 2026-02-22 00:20 | 51.53632 | 1.18988 | 36154 ft | 378 kts | 280° |
| 2026-02-22 00:20 | 51.54489 | 1.10648 | 36159 ft | 379 kts | 278° |
| 2026-02-22 00:21 | 51.55053 | 1.02236 | 36161 ft | 379 kts | 276° |
| 2026-02-22 00:21 | 51.55515 | 0.93860 | 36143 ft | 379 kts | 276° |
| 2026-02-22 00:22 | 51.56006 | 0.85432 | 36129 ft | 379 kts | 276° |
| 2026-02-22 00:22 | 51.56531 | 0.76991 | 36139 ft | 380 kts | 276° |
| 2026-02-22 00:23 | 51.57059 | 0.68550 | 36138 ft | 380 kts | 276° |
| 2026-02-22 00:23 | 51.57566 | 0.60163 | 36161 ft | 380 kts | 276° |
| 2026-02-22 00:24 | 51.58077 | 0.51720 | 36159 ft | 379 kts | 276° |
| 2026-02-22 00:24 | 51.58578 | 0.43279 | 36149 ft | 379 kts | 275° |
| 2026-02-22 00:25 | 51.59068 | 0.34830 | 36162 ft | 379 kts | 275° |
| 2026-02-22 00:25 | 51.59557 | 0.26385 | 36164 ft | 380 kts | 275° |
| 2026-02-22 00:26 | 51.60040 | 0.17980 | 36167 ft | 380 kts | 275° |
| 2026-02-22 00:26 | 51.60523 | 0.09526 | 36169 ft | 380 kts | 275° |
| 2026-02-22 00:27 | 51.60997 | 0.01059 | 36169 ft | 380 kts | 275° |
| 2026-02-22 00:27 | 51.61230 | -0.03175 | 36044 ft | 380 kts | 275° |
| 2026-02-22 00:27 | 51.61459 | -0.07413 | 36033 ft | 380 kts | 275° |
| 2026-02-22 00:28 | 51.61924 | -0.15895 | 36013 ft | 381 kts | 275° |
| 2026-02-22 00:28 | 51.62447 | -0.24375 | 36004 ft | 381 kts | 276° |
| 2026-02-22 00:29 | 51.62985 | -0.32801 | 36006 ft | 381 kts | 276° |
| 2026-02-22 00:29 | 51.63247 | -0.37036 | 36168 ft | 381 kts | 275° |
| 2026-02-22 00:29 | 51.63505 | -0.41279 | 36176 ft | 381 kts | 275° |
| 2026-02-22 00:30 | 51.64006 | -0.49772 | 36179 ft | 381 kts | 275° |
| 2026-02-22 00:30 | 51.64503 | -0.58270 | 36170 ft | 381 kts | 275° |
| 2026-02-22 00:31 | 51.64997 | -0.66768 | 36164 ft | 381 kts | 275° |
| 2026-02-22 00:31 | 51.65478 | -0.75208 | 36154 ft | 381 kts | 275° |
| 2026-02-22 00:32 | 51.65961 | -0.83699 | 36157 ft | 381 kts | 275° |
| 2026-02-22 00:32 | 51.66435 | -0.92200 | 36150 ft | 381 kts | 275° |
| 2026-02-22 00:33 | 51.66905 | -1.00700 | 36147 ft | 381 kts | 275° |
| 2026-02-22 00:33 | 51.67369 | -1.09143 | 36150 ft | 381 kts | 275° |
| 2026-02-22 00:34 | 51.67822 | -1.17631 | 36147 ft | 380 kts | 275° |
| 2026-02-22 00:34 | 51.68267 | -1.26117 | 36142 ft | 380 kts | 275° |
| 2026-02-22 00:35 | 51.68708 | -1.34611 | 36138 ft | 380 kts | 275° |
| 2026-02-22 00:35 | 51.69146 | -1.43100 | 36140 ft | 380 kts | 275° |
| 2026-02-22 00:36 | 51.69584 | -1.51538 | 36144 ft | 381 kts | 274° |
| 2026-02-22 00:36 | 51.70007 | -1.60044 | 36145 ft | 381 kts | 274° |
| 2026-02-22 00:37 | 51.70694 | -1.68490 | 36140 ft | 382 kts | 284° |
| 2026-02-22 00:37 | 51.72847 | -1.76358 | 36142 ft | 385 kts | 293° |
| 2026-02-22 00:38 | 51.75239 | -1.84029 | 36142 ft | 386 kts | 293° |
| 2026-02-22 00:38 | 51.77635 | -1.91776 | 36137 ft | 385 kts | 292° |
| 2026-02-22 00:39 | 51.80014 | -1.99533 | 36181 ft | 385 kts | 292° |
| 2026-02-22 00:39 | 51.82340 | -2.07322 | 36171 ft | 384 kts | 291° |
| 2026-02-22 00:40 | 51.84513 | -2.15204 | 36164 ft | 383 kts | 290° |
| 2026-02-22 00:40 | 51.86643 | -2.23046 | 36159 ft | 383 kts | 290° |
| 2026-02-22 00:41 | 51.88802 | -2.30925 | 36157 ft | 383 kts | 290° |
| 2026-02-22 00:41 | 51.90969 | -2.38807 | 36151 ft | 383 kts | 290° |
| 2026-02-22 00:42 | 51.95271 | -2.54539 | 36142 ft | 383 kts | 290° |
| 2026-02-22 00:43 | 51.97418 | -2.62453 | 36135 ft | 383 kts | 290° |
| 2026-02-22 00:43 | 51.99561 | -2.70361 | 36129 ft | 383 kts | 290° |
| 2026-02-22 00:44 | 52.01689 | -2.78218 | 36160 ft | 383 kts | 290° |
| 2026-02-22 00:44 | 52.03823 | -2.86115 | 36127 ft | 381 kts | 290° |
| 2026-02-22 00:45 | 52.06995 | -2.97968 | 36093 ft | 382 kts | 289° |
| 2026-02-22 00:46 | 52.09109 | -3.05899 | 36089 ft | 383 kts | 289° |
| 2026-02-22 00:46 | 52.11206 | -3.13800 | 36089 ft | 383 kts | 289° |
| 2026-02-22 00:47 | 52.13321 | -3.21768 | 36096 ft | 384 kts | 289° |
| 2026-02-22 00:47 | 52.15429 | -3.29755 | 36092 ft | 384 kts | 289° |
| 2026-02-22 00:48 | 52.17528 | -3.37749 | 36093 ft | 384 kts | 289° |
| 2026-02-22 00:48 | 52.19615 | -3.45702 | 36117 ft | 384 kts | 289° |
| 2026-02-22 00:49 | 52.21714 | -3.53703 | 36121 ft | 384 kts | 289° |
| 2026-02-22 00:49 | 52.23802 | -3.61705 | 36117 ft | 383 kts | 288° |
| 2026-02-22 00:50 | 52.25865 | -3.69685 | 36113 ft | 381 kts | 288° |
| 2026-02-22 00:50 | 52.27911 | -3.77612 | 36113 ft | 382 kts | 288° |
| 2026-02-22 00:51 | 52.29975 | -3.85602 | 36111 ft | 382 kts | 288° |
| 2026-02-22 00:51 | 52.32029 | -3.93599 | 36106 ft | 382 kts | 288° |
| 2026-02-22 00:52 | 52.34073 | -4.01600 | 36111 ft | 381 kts | 288° |
| 2026-02-22 00:52 | 52.36093 | -4.09522 | 36107 ft | 380 kts | 288° |
| 2026-02-22 00:53 | 52.38127 | -4.17494 | 36100 ft | 379 kts | 288° |
| 2026-02-22 00:53 | 52.40147 | -4.25452 | 36087 ft | 379 kts | 288° |
| 2026-02-22 00:54 | 52.42157 | -4.33426 | 36084 ft | 379 kts | 289° |
| 2026-02-22 00:54 | 52.43404 | -4.37271 | 35932 ft | 386 kts | 297° |
| 2026-02-22 00:54 | 52.45061 | -4.40778 | 35108 ft | 396 kts | 305° |
| 2026-02-22 00:54 | 52.46931 | -4.44035 | 34102 ft | 399 kts | 306° |
| 2026-02-22 00:55 | 52.48847 | -4.47344 | 32954 ft | 401 kts | 306° |
| 2026-02-22 00:55 | 52.50773 | -4.50667 | 31827 ft | 403 kts | 306° |
| 2026-02-22 00:55 | 52.52704 | -4.54012 | 30737 ft | 404 kts | 305° |
| 2026-02-22 00:55 | 52.54632 | -4.57370 | 29607 ft | 405 kts | 305° |
| 2026-02-22 00:56 | 52.56559 | -4.60741 | 28396 ft | 405 kts | 305° |
| 2026-02-22 00:56 | 52.58486 | -4.64127 | 27240 ft | 405 kts | 305° |
| 2026-02-22 00:56 | 52.60406 | -4.67519 | 26133 ft | 406 kts | 305° |
| 2026-02-22 00:56 | 52.62327 | -4.70923 | 25069 ft | 405 kts | 305° |
| 2026-02-22 00:57 | 52.64220 | -4.74280 | 24055 ft | 405 kts | 305° |
| 2026-02-22 00:57 | 52.66130 | -4.77661 | 22944 ft | 399 kts | 305° |
| 2026-02-22 00:57 | 52.68013 | -4.80982 | 21849 ft | 395 kts | 305° |
| 2026-02-22 00:57 | 52.69877 | -4.84275 | 20763 ft | 391 kts | 305° |
| 2026-02-22 00:58 | 52.71719 | -4.87540 | 19727 ft | 387 kts | 305° |
| 2026-02-22 00:58 | 52.73545 | -4.90783 | 18737 ft | 384 kts | 305° |
| 2026-02-22 00:58 | 52.75353 | -4.94009 | 17704 ft | 381 kts | 306° |
| 2026-02-22 00:58 | 52.77146 | -4.97223 | 16655 ft | 386 kts | 306° |
| 2026-02-22 00:59 | 52.78984 | -5.00532 | 15714 ft | 394 kts | 306° |
| 2026-02-22 00:59 | 52.80849 | -5.03876 | 14672 ft | 397 kts | 307° |
| 2026-02-22 00:59 | 52.82685 | -5.07151 | 13666 ft | 386 kts | 307° |
| 2026-02-22 00:59 | 52.84520 | -5.10419 | 12568 ft | 387 kts | 307° |
| 2026-02-22 01:00 | 52.86313 | -5.13610 | 12194 ft | 372 kts | 307° |
| 2026-02-22 01:00 | 52.88053 | -5.16721 | 11474 ft | 367 kts | 307° |
| 2026-02-22 01:00 | 52.89782 | -5.19839 | 10591 ft | 368 kts | 307° |
| 2026-02-22 01:00 | 52.91504 | -5.22955 | 9967 ft | 365 kts | 307° |
| 2026-02-22 01:01 | 52.93224 | -5.26071 | 9683 ft | 366 kts | 307° |
| 2026-02-22 01:01 | 52.94943 | -5.29182 | 9377 ft | 366 kts | 307° |
| 2026-02-22 01:01 | 52.96658 | -5.32291 | 9091 ft | 364 kts | 307° |
| 2026-02-22 01:01 | 52.98341 | -5.35343 | 8808 ft | 363 kts | 307° |
| 2026-02-22 01:02 | 53.00041 | -5.38426 | 8524 ft | 361 kts | 307° |
| 2026-02-22 01:02 | 53.01734 | -5.41504 | 8242 ft | 360 kts | 307° |
| 2026-02-22 01:02 | 53.03418 | -5.44568 | 7947 ft | 359 kts | 307° |
| 2026-02-22 01:02 | 53.05094 | -5.47618 | 7689 ft | 357 kts | 307° |
| 2026-02-22 01:03 | 53.06897 | -5.50483 | 7416 ft | 362 kts | 319° |
| 2026-02-22 01:03 | 53.09015 | -5.52780 | 7178 ft | 364 kts | 322° |
| 2026-02-22 01:03 | 53.11123 | -5.54999 | 6993 ft | 363 kts | 322° |
| 2026-02-22 01:03 | 53.13258 | -5.57229 | 6855 ft | 362 kts | 322° |
| 2026-02-22 01:04 | 53.15335 | -5.59547 | 6675 ft | 356 kts | 316° |
| 2026-02-22 01:04 | 53.17255 | -5.62135 | 6319 ft | 353 kts | 315° |
| 2026-02-22 01:04 | 53.19116 | -5.64709 | 5994 ft | 339 kts | 314° |
| 2026-02-22 01:04 | 53.20877 | -5.67167 | 5651 ft | 321 kts | 314° |
| 2026-02-22 01:05 | 53.22543 | -5.69503 | 5312 ft | 307 kts | 314° |
| 2026-02-22 01:05 | 53.24161 | -5.71782 | 5037 ft | 302 kts | 314° |
| 2026-02-22 01:05 | 53.25758 | -5.74040 | 4823 ft | 300 kts | 314° |
| 2026-02-22 01:05 | 53.27321 | -5.76246 | 4616 ft | 292 kts | 314° |
| 2026-02-22 01:06 | 53.28835 | -5.78364 | 4432 ft | 275 kts | 314° |
| 2026-02-22 01:06 | 53.30256 | -5.80345 | 4310 ft | 257 kts | 313° |
| 2026-02-22 01:06 | 53.31585 | -5.82203 | 4176 ft | 241 kts | 313° |
| 2026-02-22 01:06 | 53.32831 | -5.83946 | 4047 ft | 226 kts | 312° |
| 2026-02-22 01:07 | 53.34002 | -5.85593 | 3920 ft | 215 kts | 312° |
| 2026-02-22 01:07 | 53.35136 | -5.87203 | 3789 ft | 213 kts | 311° |
| 2026-02-22 01:07 | 53.36262 | -5.88805 | 3667 ft | 212 kts | 311° |
| 2026-02-22 01:07 | 53.37371 | -5.90380 | 3575 ft | 212 kts | 312° |
| 2026-02-22 01:08 | 53.38495 | -5.91971 | 3535 ft | 211 kts | 312° |
| 2026-02-22 01:08 | 53.39580 | -5.93610 | 3535 ft | 206 kts | 303° |
| 2026-02-22 01:08 | 53.40259 | -5.95576 | 3524 ft | 191 kts | 283° |
| 2026-02-22 01:08 | 53.40479 | -5.97698 | 3401 ft | 180 kts | 272° |
| 2026-02-22 01:09 | 53.40597 | -5.99756 | 3188 ft | 175 kts | 272° |
| 2026-02-22 01:09 | 53.40712 | -6.01765 | 2965 ft | 171 kts | 272° |
| 2026-02-22 01:09 | 53.40825 | -6.03733 | 2751 ft | 168 kts | 272° |
| 2026-02-22 01:09 | 53.40934 | -6.05637 | 2532 ft | 160 kts | 271° |
| 2026-02-22 01:10 | 53.41037 | -6.07442 | 2309 ft | 157 kts | 271° |
| 2026-02-22 01:10 | 53.41139 | -6.09254 | 2097 ft | 156 kts | 270° |
| 2026-02-22 01:10 | 53.41240 | -6.11018 | 1887 ft | 146 kts | 270° |
| 2026-02-22 01:10 | 53.41332 | -6.12611 | 1716 ft | 129 kts | 268° |
| 2026-02-22 01:11 | 53.41414 | -6.14071 | 1533 ft | 123 kts | 268° |
| 2026-02-22 01:11 | 53.41493 | -6.15486 | 1366 ft | 122 kts | 268° |
| 2026-02-22 01:11 | 53.41573 | -6.16892 | 1199 ft | 121 kts | 269° |
| 2026-02-22 01:11 | 53.41658 | -6.18277 | 1024 ft | 118 kts | 266° |
| 2026-02-22 01:12 | 53.41733 | -6.19663 | 876 ft | 120 kts | 270° |
| 2026-02-22 01:12 | 53.41808 | -6.21039 | 727 ft | 121 kts | 270° |
| 2026-02-22 01:12 | 53.41889 | -6.22438 | 568 ft | 121 kts | 268° |
| 2026-02-22 01:12 | 53.41967 | -6.23845 | 431 ft | 122 kts | 269° |
| 2026-02-22 01:13 | 53.42040 | -6.25255 | 264 ft | 121 kts | 268° |
| 2026-02-22 01:13 | 53.42102 | -6.26553 | 211 ft | 93 kts | 274° |
| 2026-02-22 01:13 | 53.42148 | -6.27343 | 211 ft | 41 kts | 275° |
| 2026-02-22 01:13 | 53.42186 | -6.27766 | 210 ft | 35 kts | 288° |
| 2026-02-22 01:14 | 53.42270 | -6.28053 | 212 ft | 16 kts | 300° |
| 2026-02-22 01:14 | 53.42349 | -6.28113 | 218 ft | 12 kts | 38° |
| 2026-02-22 01:14 | 53.42360 | -6.27980 | 211 ft | 12 kts | 96° |
| 2026-02-22 01:14 | 53.42352 | -6.27850 | 215 ft | 11 kts | 95° |
| 2026-02-22 01:15 | 53.42345 | -6.27726 | 214 ft | 10 kts | 95° |
| 2026-02-22 01:15 | 53.42337 | -6.27580 | 215 ft | 21 kts | 96° |
| 2026-02-22 01:15 | 53.42319 | -6.27269 | 211 ft | 29 kts | 96° |
| 2026-02-22 01:15 | 53.42302 | -6.26920 | 211 ft | 31 kts | 95° |
| 2026-02-22 01:16 | 53.42280 | -6.26545 | 217 ft | 34 kts | 96° |
| 2026-02-22 01:16 | 53.42258 | -6.26142 | 211 ft | 36 kts | 95° |
| 2026-02-22 01:16 | 53.42237 | -6.25744 | 216 ft | 23 kts | 95° |
| 2026-02-22 01:16 | 53.42222 | -6.25467 | 214 ft | 25 kts | 95° |
| 2026-02-22 01:17 | 53.42205 | -6.25162 | 214 ft | 28 kts | 95° |
| 2026-02-22 01:17 | 53.42187 | -6.24827 | 211 ft | 30 kts | 95° |
| 2026-02-22 01:17 | 53.42175 | -6.24592 | 214 ft | 14 kts | 95° |
| 2026-02-22 01:17 | 53.42169 | -6.24492 | 211 ft | 8 kts | 95° |
| 2026-02-22 01:18 | 53.42166 | -6.24426 | 211 ft | 4 kts | 95° |
| 2026-02-22 01:18 | 53.42163 | -6.24384 | 220 ft | 3 kts | 95° |
| 2026-02-22 01:18 | 53.42166 | -6.24350 | 211 ft | 2 kts | 64° |
| 2026-02-22 01:18 | 53.42179 | -6.24339 | 214 ft | 2 kts | 13° |
| 2026-02-22 01:19 | 53.42190 | -6.24346 | 213 ft | 4 kts | 333° |
| 2026-02-22 01:19 | 53.42212 | -6.24390 | 211 ft | 5 kts | 311° |
| 2026-02-22 01:19 | 53.42237 | -6.24420 | 211 ft | 4 kts | 331° |
| 2026-02-22 01:19 | 53.42250 | -6.24431 | 215 ft | 1 kts | 332° |
| 2026-02-22 01:20 | 53.42253 | -6.24434 | 214 ft | 0 kts | 332° |